Latest Weather Observations for Pallamana

IDS60801

Issued at 6:41 am CDT Tuesday 18 January 2022 (issued every 10 minutes, with the page automatically refreshed every 10 minutes)

About weather observations | Map of weather stations | Latest weather observations for SA | Other Formats
Station Details ID: 024584 Name: PALLAMANA AERODROME Lat: -35.06 Lon: 139.23 Height: 45.0 m
Data from the previous 72 hours. | See also: Recent months at Pallamana
Date/Time
CDT
Temp
°C
App
Temp
°C
Dew
Point
°C
Rel
Hum
%
Delta-T
°C
Wind Press
QNH
hPa
Press
MSL
hPa
Rain since
9am
mm
Dir  Spd
km/h
Gust
km/h
Spd
kts
Gust
kts
18/06:30am 14.7 11.4 9.5 71 2.7 SSE 17 22 9 12 1017.1 1016.9 0.0
18/06:22am 14.6 11.6 9.4 71 2.7 SSE 15 20 8 11 1017.0 1016.8 0.0
18/06:00am 14.6 11.6 9.4 71 2.7 SSE 15 20 8 11 1016.8 1016.6 0.0
18/05:30am 14.3 11.0 9.7 74 2.4 S 17 24 9 13 1016.6 1016.4 0.0
18/05:00am 14.4 10.7 9.6 73 2.5 S 19 22 10 12 1016.3 1016.1 0.0
18/04:30am 14.7 11.1 9.7 72 2.6 SSE 19 26 10 14 1016.0 1015.8 0.0
18/04:00am 15.0 10.8 9.6 70 2.8 SSE 22 30 12 16 1015.8 1015.6 0.0
18/03:30am 14.9 12.1 10.1 73 2.5 SSE 15 19 8 10 1015.7 1015.5 0.0
18/03:00am 15.4 12.0 10.4 72 2.6 S 19 24 10 13 1015.7 1015.5 0.0
18/02:30am 15.3 12.6 10.3 72 2.6 S 15 20 8 11 1015.7 1015.5 0.0
18/02:00am 15.4 12.4 10.6 73 2.5 S 17 24 9 13 1015.9 1015.7 0.0
18/01:30am 15.3 13.0 10.5 73 2.5 S 13 17 7 9 1016.0 1015.8 0.0
18/01:00am 16.0 13.0 10.7 71 2.8 S 17 20 9 11 1015.9 1015.7 0.0
18/12:30am 16.2 13.0 11.2 72 2.7 SSW 19 24 10 13 1015.9 1015.7 0.0
18/12:00am 16.5 13.4 11.6 73 2.7 SSW 19 28 10 15 1015.9 1015.7 0.0
 
Date/Time
CDT
Temp
°C
App
Temp
°C
Dew
Point
°C
Rel
Hum
%
Delta-T
°C
Wind Press
QNH
hPa
Press
MSL
hPa
Rain since
9am
mm
Dir  Spd
km/h
Gust
km/h
Spd
kts
Gust
kts
17/11:30pm 16.4 13.0 11.3 72 2.7 SSW 20 26 11 14 1015.9 1015.7 0.0
17/11:00pm 16.5 13.0 10.8 69 3.0 SSW 20 28 11 15 1016.0 1015.8 0.0
17/10:30pm 16.5 12.9 10.6 68 3.1 SSW 20 24 11 13 1016.0 1015.8 0.0
17/10:00pm 16.8 13.5 10.9 68 3.2 SSW 19 30 10 16 1015.9 1015.7 0.0
17/09:30pm 17.2 13.5 11.5 69 3.1 S 22 32 12 17 1015.6 1015.4 0.0
17/09:00pm 17.6 14.1 12.3 71 2.9 S 22 32 12 17 1015.4 1015.2 0.0
17/08:30pm 18.1 14.4 12.8 71 3.0 SSW 24 35 13 19 1015.1 1014.9 0.0
17/08:00pm 18.7 15.1 12.9 69 3.3 S 24 35 13 19 1014.9 1014.7 0.0
17/07:51pm 18.8 14.4 13.0 69 3.3 SSW 28 39 15 21 1014.8 1014.6 0.0
17/07:35pm 19.2 15.3 13.2 68 3.4 SSW 26 35 14 19 1014.6 1014.4 0.0
17/07:30pm 19.4 15.1 13.3 68 3.5 SSW 28 35 15 19 1014.4 1014.2 0.0
17/07:00pm 20.0 16.1 13.2 65 3.9 S 26 37 14 20 1013.9 1013.7 0.0
17/06:30pm 20.5 15.9 13.5 64 4.0 SSW 30 37 16 20 1013.4 1013.2 0.0
17/06:00pm 21.6 17.2 13.0 58 4.9 SSW 28 39 15 21 1013.1 1012.9 0.0
17/05:53pm 22.0 17.3 13.1 57 5.1 SSW 30 39 16 21 1013.1 1012.9 0.0
17/05:32pm 22.2 17.9 13.3 57 5.1 S 28 39 15 21 1012.8 1012.6 0.0
17/05:30pm 22.2 17.9 13.3 57 5.1 SSW 28 39 15 21 1012.8 1012.6 0.0
17/05:00pm 22.8 18.1 13.3 55 5.5 S 30 43 16 23 1012.6 1012.4 0.0
17/04:30pm 23.2 19.1 12.8 52 6.0 S 26 41 14 22 1012.8 1012.6 0.0
17/04:00pm 24.2 20.5 12.8 49 6.6 SSW 24 32 13 17 1012.8 1012.6 0.0
17/03:30pm 24.9 21.0 12.2 45 7.3 SSW 24 39 13 21 1012.6 1012.4 0.0
17/03:00pm 25.3 21.5 12.5 45 7.4 S 24 35 13 19 1012.5 1012.3 0.0
17/02:30pm 25.7 21.8 13.2 46 7.3 S 26 35 14 19 1012.7 1012.5 0.0
17/02:00pm 25.9 21.4 11.3 40 8.3 S 26 39 14 21 1012.7 1012.5 0.0
17/01:30pm 25.3 22.9 12.5 45 7.4 S 17 30 9 16 1013.2 1013.0 0.0
17/01:00pm 24.1 21.2 13.0 50 6.4 S 20 35 11 19 1013.4 1013.2 0.0
17/12:30pm 23.4 20.4 12.1 49 6.4 SE 19 28 10 15 1013.7 1013.5 0.0
17/12:00pm 23.2 20.9 13.1 53 5.8 S 17 28 9 15 1014.0 1013.8 0.0
17/11:30am 22.4 20.5 12.9 55 5.4 SSE 15 20 8 11 1013.9 1013.7 0.0
17/11:00am 22.0 19.7 13.1 57 5.1 S 17 26 9 14 1014.1 1013.9 0.0
17/10:30am 21.9 20.7 14.0 61 4.6 S 13 22 7 12 1014.1 1013.9 0.0
17/10:00am 21.1 19.5 14.0 64 4.1 SSW 15 22 8 12 1013.8 1013.6 0.0
17/09:30am 20.0 18.0 13.9 68 3.5 S 17 20 9 11 1013.9 1013.7 0.0
17/09:00am 19.7 19.4 15.4 76 2.5 SSW 11 15 6 8 1013.9 1013.7 0.0
17/08:30am 19.1 18.5 15.6 80 2.1 SW 13 17 7 9 1013.9 1013.7 0.0
17/08:00am 18.7 18.3 15.2 80 2.1 SW 11 13 6 7 1013.7 1013.5 0.0
17/07:30am 18.2 17.4 15.1 82 1.8 SW 13 17 7 9 1012.8 1012.6 0.0
17/07:00am 17.5 17.0 15.0 85 1.5 SW 11 15 6 8 1011.8 1011.6 0.0
17/06:30am 17.1 16.1 14.6 85 1.4 SW 13 17 7 9 1011.7 1011.5 0.0
17/06:00am 17.1 15.7 14.6 85 1.4 SW 15 19 8 10 1011.0 1010.9 0.0
17/05:30am 16.8 15.7 14.4 86 1.4 WSW 13 15 7 8 1011.4 1011.2 0.0
17/05:00am 16.7 15.2 14.2 85 1.4 WSW 15 17 8 9 1011.0 1010.9 0.0
17/04:30am 16.8 15.3 14.1 84 1.5 W 15 19 8 10 1011.0 1010.9 0.0
17/04:00am 16.4 15.2 13.9 85 1.4 WSW 13 15 7 8 1010.6 1010.5 0.0
17/03:30am 16.5 14.9 14.0 85 1.4 WSW 15 19 8 10 1010.6 1010.5 0.0
17/03:00am 16.3 15.0 13.8 85 1.4 WSW 13 17 7 9 1010.4 1010.3 0.0
17/02:30am 16.2 14.9 13.7 85 1.4 WSW 13 17 7 9 1010.6 1010.5 0.0
17/02:00am 16.1 15.2 13.8 86 1.3 WSW 11 13 6 7 1010.8 1010.7 0.0
17/01:30am 16.4 15.6 13.9 85 1.4 WSW 11 15 6 8 1011.3 1011.1 0.0
17/01:00am 16.5 15.4 14.2 86 1.3 SW 13 15 7 8 1011.5 1011.3 0.0
17/12:30am 16.9 15.8 14.4 85 1.4 SSW 13 17 7 9 1011.6 1011.4 0.0
17/12:00am 17.3 15.9 14.4 83 1.7 SW 15 19 8 10 1011.8 1011.6 0.0
 
Date/Time
CDT
Temp
°C
App
Temp
°C
Dew
Point
°C
Rel
Hum
%
Delta-T
°C
Wind Press
QNH
hPa
Press
MSL
hPa
Rain since
9am
mm
Dir  Spd
km/h
Gust
km/h
Spd
kts
Gust
kts
16/11:30pm 17.3 16.2 14.4 83 1.7 SW 13 15 7 8 1011.4 1011.2 0.0
16/11:00pm 17.5 16.1 14.6 83 1.7 SSW 15 20 8 11 1011.4 1011.2 0.0
16/10:30pm 17.6 15.9 14.7 83 1.7 SSW 17 22 9 12 1011.1 1011.0 0.0
16/10:00pm 17.7 15.6 14.6 82 1.8 SSW 19 26 10 14 1011.3 1011.1 0.0
16/09:30pm 17.9 15.7 14.8 82 1.8 SSW 20 30 11 16 1010.6 1010.5 0.0
16/09:02pm 18.2 15.9 14.7 80 2.0 SSW 20 30 11 16 1010.3 1010.2 0.0
16/09:00pm 18.3 15.7 14.8 80 2.0 SSW 22 30 12 16 1010.2 1010.1 0.0
16/08:46pm 18.5 15.5 14.8 79 2.2 SSW 24 32 13 17 1009.9 1009.8 0.0
16/08:30pm 18.7 16.1 14.8 78 2.3 SSW 22 32 12 17 1009.8 1009.7 0.0
16/08:00pm 19.1 15.8 15.0 77 2.4 SSW 26 33 14 18 1009.1 1009.0 0.0
16/07:30pm 19.6 16.4 15.3 76 2.5 SSW 26 35 14 19 1008.4 1008.3 0.0
16/07:00pm 20.1 16.1 15.3 74 2.8 SSW 30 41 16 22 1007.8 1007.7 0.0
16/06:33pm 20.7 16.7 15.3 71 3.2 SSW 30 41 16 22 1007.3 1007.2 0.0
16/06:30pm 21.0 17.4 15.3 70 3.4 SSW 28 37 15 20 1007.4 1007.3 0.0
16/06:15pm 21.1 16.8 15.4 70 3.4 SSW 32 43 17 23 1007.2 1007.1 0.0
16/06:00pm 21.4 16.9 15.5 69 3.5 SSW 33 44 18 24 1006.9 1006.8 0.0
16/05:30pm 22.4 18.2 15.7 66 4.0 SSW 32 44 17 24 1006.5 1006.3 0.0
16/05:00pm 24.0 20.6 15.8 60 5.0 SSW 28 39 15 21 1006.3 1006.1 0.0
16/04:30pm 24.9 20.9 16.3 59 5.3 SSW 32 43 17 23 1006.3 1006.1 0.0
16/04:00pm 26.8 22.7 16.4 53 6.4 SSW 33 46 18 25 1005.9 1005.7 0.0
16/03:30pm 28.8 24.3 16.4 47 7.7 SSW 35 43 19 23 1005.7 1005.5 0.0
16/03:00pm 30.1 26.0 16.5 44 8.5 SSW 33 44 18 24 1005.6 1005.4 0.0
16/02:30pm 30.4 26.3 16.0 41 9.0 SW 32 41 17 22 1005.6 1005.4 0.0
16/02:00pm 30.0 26.6 15.7 42 8.9 SSW 28 37 15 20 1005.7 1005.5 0.0
16/01:30pm 30.8 26.9 14.4 36 10.0 SSW 28 41 15 22 1005.9 1005.7 0.0
16/01:00pm 32.5 29.0 14.6 34 11.0 S 26 33 14 18 1006.0 1005.8 0.0
16/12:30pm 32.3 31.0 12.5 30 11.8 ESE 11 17 6 9 1006.1 1005.9 0.0
16/12:00pm 30.8 29.9 12.7 33 10.8 SSE 9 19 5 10 1006.3 1006.1 0.0
16/11:30am 30.2 29.8 13.0 34 10.2 NNE 7 13 4 7 1006.5 1006.3 0.0
16/11:00am 27.9 27.3 13.4 40 8.6 ESE 9 13 5 7 1006.7 1006.5 0.0
16/10:30am 25.9 25.6 13.4 46 7.4 NE 7 13 4 7 1007.2 1007.1 0.0
16/10:00am 25.0 25.0 14.2 51 6.4 E 7 11 4 6 1007.4 1007.3 0.0
16/09:30am 23.9 23.8 14.9 57 5.4 E 9 13 5 7 1007.5 1007.4 0.0
16/09:00am 21.9 22.2 15.0 65 4.1 SSE 7 13 4 7 1007.7 1007.6 0.0
16/08:30am 20.4 20.8 15.2 72 3.1 S 7 11 4 6 1007.4 1007.3 0.0
16/08:00am 18.8 18.9 15.5 81 1.9 W 9 11 5 6 1007.5 1007.4 0.0
16/07:30am 17.6 16.9 15.4 87 1.3 W 13 15 7 8 1007.1 1007.0 0.0
16/07:00am 16.6 15.9 15.3 92 0.8 W 13 17 7 9 1006.8 1006.7 0.0
16/06:30am 15.8 15.7 15.0 95 0.5 WNW 9 13 5 7 1006.9 1006.8 0.0
16/06:00am 15.8 15.6 14.8 94 0.6 W 9 11 5 6 1006.7 1006.5 0.0
16/05:38am 15.8 15.6 14.7 93 0.6 WSW 9 11 5 6 1006.7 1006.5 0.0
16/05:30am 16.2 16.2 15.2 94 0.6 WSW 9 9 5 5 1006.8 1006.7 0.0
16/05:00am 16.5 16.6 15.4 93 0.6 WSW 9 9 5 5 1006.8 1006.7 0.0
16/04:30am 16.9 17.0 15.4 91 0.9 SW 9 11 5 6 1006.5 1006.3 0.0
16/04:00am 17.0 17.4 15.3 90 1.0 SW 7 11 4 6 1006.6 1006.4 0.0
16/03:30am 16.8 16.4 15.2 90 0.9 WSW 11 13 6 7 1006.8 1006.7 0.0
16/03:00am 16.4 15.5 14.9 91 0.9 WSW 13 17 7 9 1006.8 1006.7 0.0
16/02:30am 15.7 14.3 14.6 93 0.6 WSW 15 17 8 9 1007.4 1007.3 0.0
16/02:20am 15.4 14.3 14.4 94 0.6 WSW 13 17 7 9 1007.4 1007.3 0.0
16/02:00am 15.2 13.7 14.1 93 0.6 WSW 15 17 8 9 1007.6 1007.5 0.0
16/01:30am 15.6 14.5 14.3 92 0.7 SW 13 17 7 9 1007.7 1007.6 0.0
16/01:00am 15.7 14.2 14.2 91 0.9 WSW 15 17 8 9 1008.1 1008.0 0.0
16/12:30am 15.8 14.7 14.2 90 0.9 WSW 13 15 7 8 1008.1 1008.0 0.0
16/12:00am 16.4 15.3 14.2 87 1.3 WSW 13 15 7 8 1008.4 1008.3 0.0
 
Date/Time
CDT
Temp
°C
App
Temp
°C
Dew
Point
°C
Rel
Hum
%
Delta-T
°C
Wind Press
QNH
hPa
Press
MSL
hPa
Rain since
9am
mm
Dir  Spd
km/h
Gust
km/h
Spd
kts
Gust
kts
15/11:30pm 16.7 15.6 14.3 86 1.4 SW 13 17 7 9 1008.1 1008.0 0.0
15/11:00pm 17.2 16.2 14.7 85 1.4 SW 13 15 7 8 1008.4 1008.3 0.0
15/10:30pm 17.6 16.6 14.7 83 1.7 SW 13 19 7 10 1008.3 1008.2 0.0
15/10:00pm 18.1 17.2 14.8 81 1.9 SW 13 19 7 10 1008.2 1008.1 0.0
15/09:30pm 18.7 17.4 14.8 78 2.3 SW 15 19 8 10 1008.4 1008.3 0.0
15/09:00pm 19.4 17.8 14.9 75 2.6 SSW 17 24 9 13 1008.3 1008.2 0.0
15/08:50pm 19.7 17.7 14.9 74 2.8 SSW 19 26 10 14 1008.2 1008.1 0.0
15/08:33pm 20.2 18.0 15.0 72 3.1 SSW 20 26 11 14 1007.9 1007.8 0.0
15/08:30pm 20.3 18.1 14.9 71 3.2 SSW 20 26 11 14 1007.9 1007.8 0.0
15/08:00pm 21.3 19.1 14.9 67 3.8 SSW 20 28 11 15 1006.9 1006.8 0.0
15/07:30pm 22.3 20.3 15.4 65 4.1 S 20 30 11 16 1006.8 1006.7 0.0
15/07:23pm 22.4 20.0 15.3 64 4.2 S 22 28 12 15 1006.0 1005.8 0.0
15/07:00pm 23.2 20.4 15.3 61 4.7 S 24 30 13 16 1008.0 1007.9 0.0
15/06:30pm 24.1 21.6 15.1 57 5.4 S 22 30 12 16 1006.6 1006.4 0.0
15/06:00pm 25.1 22.3 15.4 55 5.9 SSE 24 33 13 18 1006.5 1006.3 0.0
15/05:30pm 25.3 23.2 14.7 51 6.4 SSW 19 32 10 17 1006.6 1006.4 0.0
15/05:00pm 25.6 22.7 14.1 49 6.8 S 22 30 12 16 1006.5 1006.3 0.0
15/04:30pm 25.7 22.0 13.9 48 7.0 S 26 37 14 20 1006.4 1006.2 0.0
15/04:00pm 26.4 23.2 14.2 47 7.3 S 24 33 13 18 1006.6 1006.4 0.0
15/03:30pm 26.8 23.2 14.2 46 7.5 SSE 26 35 14 19 1006.7 1006.5 0.0
15/03:00pm 27.3 24.5 13.3 42 8.3 S 20 30 11 16 1006.8 1006.7 0.0
15/02:30pm 27.2 24.6 13.2 42 8.3 SSW 19 30 10 16 1007.1 1007.0 0.0
15/02:00pm 27.8 25.7 13.7 42 8.4 SSE 17 26 9 14 1007.4 1007.3 0.0
15/01:30pm 26.0 24.8 14.1 47 7.1 SW 13 22 7 12 1007.9 1007.8 0.0
15/01:00pm 25.0 22.4 13.9 50 6.5 S 20 35 11 19 1008.0 1007.9 0.0
15/12:30pm 25.0 22.6 13.9 50 6.6 S 19 32 10 17 1008.1 1008.0 0.0
15/12:00pm 24.8 22.4 13.7 50 6.5 S 19 28 10 15 1008.3 1008.2 0.0
15/11:30am 24.0 22.0 13.8 53 6.0 S 17 30 9 16 1008.4 1008.3 0.0
15/11:00am 23.0 21.0 13.8 56 5.4 SSW 17 26 9 14 1008.3 1008.2 0.0
15/10:30am 22.2 20.7 14.1 60 4.7 SSW 15 24 8 13 1008.5 1008.4 0.0
15/10:00am 21.4 19.5 14.1 63 4.3 S 17 24 9 13 1008.6 1008.5 0.0
15/09:30am 20.4 19.3 14.3 68 3.6 SSW 13 20 7 11 1008.7 1008.6 0.0
15/09:00am 19.7 18.5 14.1 70 3.2 SSW 13 17 7 9 1008.6 1008.5 0.0
15/08:30am 19.3 17.8 14.1 72 3.0 SSW 15 20 8 11 1008.3 1008.2 0.0
15/08:00am 18.9 16.4 14.0 73 2.8 SW 20 28 11 15 1008.1 1008.0 0.0
15/07:30am 18.8 16.9 14.1 74 2.7 SSW 17 20 9 11 1007.8 1007.7 0.0
15/07:00am 18.7 17.2 14.2 75 2.6 SSW 15 19 8 10 1007.4 1007.3 0.0

Other formats

Comma delimited format used in spreadsheet applications
http://www.bom.gov.au/fwo/IDS60801/IDS60801.95818.axf

JavaScript Object Notation format (JSON) in row-major order
http://www.bom.gov.au/fwo/IDS60801/IDS60801.95818.json

Data quality

Most of these data are generated automatically and are frequently updated. Quality checks on data are not normally performed. It is possible for incorrect values to appear. Refer to information at About Latest Weather Observations and please check the disclaimer before using these data.